Time;durP1;ratioP1;P1;durP2;ratioP2;P2;SDS_P1;SDS_P2;PMS_P1;PMS_P2;Temp;Humidity;BMP_temperature;BMP_pressure;BME280_temperature;BME280_humidity;BME280_pressure;Samples;Min_cycle;Max_cycle;Signal;HPM_P1;HPM_P2
2023/10/20 00:00:19;;;;;;;41.88;25.23;;;13.60;99.90;;;;;;5016815;28;20476;-74
2023/10/20 00:02:45;;;;;;;42.58;25.38;;;13.70;99.90;;;;;;5017081;28;20096;-74
2023/10/20 00:05:11;;;;;;;37.40;25.63;;;13.70;99.90;;;;;;5016814;28;20030;-74
2023/10/20 00:07:37;;;;;;;44.72;25.92;;;13.70;99.90;;;;;;5017033;28;20021;-73
2023/10/20 00:10:05;;;;;;;39.60;25.52;;;13.70;99.90;;;;;;5016891;28;20030;-74
2023/10/20 00:12:31;;;;;;;37.67;26.23;;;13.70;99.90;;;;;;5016788;28;20566;-74
2023/10/20 00:14:56;;;;;;;42.90;26.02;;;13.70;99.90;;;;;;5016682;28;20058;-74
2023/10/20 00:17:22;;;;;;;40.45;25.80;;;13.60;99.90;;;;;;5016572;28;20026;-74
2023/10/20 00:19:48;;;;;;;39.92;25.85;;;13.60;99.90;;;;;;5016888;28;20531;-74
2023/10/20 00:22:15;;;;;;;42.47;26.33;;;13.60;99.90;;;;;;5016809;28;20037;-74
2023/10/20 00:24:41;;;;;;;41.33;25.52;;;13.60;99.90;;;;;;5016411;28;20021;-74
2023/10/20 00:27:08;;;;;;;42.95;26.23;;;13.60;99.90;;;;;;5016329;28;20125;-75
2023/10/20 00:29:34;;;;;;;42.15;26.58;;;13.60;99.90;;;;;;5016261;28;20034;-73
2023/10/20 00:32:00;;;;;;;39.90;25.10;;;13.60;99.90;;;;;;5016287;28;20033;-74
2023/10/20 00:34:25;;;;;;;40.47;25.13;;;13.60;99.90;;;;;;5016313;28;20026;-74
2023/10/20 00:36:51;;;;;;;38.08;25.25;;;13.60;99.90;;;;;;5016169;28;20045;-74
2023/10/20 00:39:16;;;;;;;40.20;24.17;;;13.50;99.90;;;;;;5016498;28;20022;-73
2023/10/20 00:41:42;;;;;;;40.60;25.38;;;13.50;99.90;;;;;;5016037;28;20026;-73
2023/10/20 00:44:07;;;;;;;39.45;24.63;;;13.50;99.90;;;;;;5016293;28;20068;-73
2023/10/20 00:46:34;;;;;;;39.55;24.20;;;13.50;99.90;;;;;;5015602;28;20038;-74
2023/10/20 00:49:01;;;;;;;42.35;26.80;;;13.50;99.90;;;;;;5015991;28;20026;-74
2023/10/20 00:51:28;;;;;;;41.75;25.73;;;13.60;99.90;;;;;;5015983;28;20034;-74
2023/10/20 00:53:56;;;;;;;39.08;25.55;;;13.60;99.90;;;;;;5016176;28;20045;-74
2023/10/20 00:56:22;;;;;;;38.67;26.13;;;13.60;99.90;;;;;;5015250;28;20026;-74
2023/10/20 00:58:47;;;;;;;38.35;25.98;;;13.60;99.90;;;;;;5015651;28;20033;-73
2023/10/20 01:01:13;;;;;;;44.90;27.48;;;13.60;99.90;;;;;;5016132;28;20053;-74
2023/10/20 01:03:39;;;;;;;39.95;27.88;;;13.60;99.90;;;;;;5015675;28;20022;-74
2023/10/20 01:06:05;;;;;;;40.03;27.00;;;13.60;99.90;;;;;;5015473;28;20460;-74
2023/10/20 01:08:30;;;;;;;43.72;28.42;;;13.70;99.90;;;;;;5015608;28;20029;-74
2023/10/20 01:10:56;;;;;;;46.22;27.35;;;13.70;99.90;;;;;;5015188;28;20128;-73
2023/10/20 01:13:22;;;;;;;46.80;28.77;;;13.70;99.90;;;;;;5015421;28;20447;-73
2023/10/20 01:15:49;;;;;;;47.50;29.15;;;13.70;99.90;;;;;;5015314;28;20034;-73
2023/10/20 01:18:14;;;;;;;51.50;30.05;;;13.70;99.90;;;;;;5015156;28;20113;-73
2023/10/20 01:20:40;;;;;;;45.60;28.80;;;13.80;99.90;;;;;;5014836;28;20053;-74
2023/10/20 01:23:06;;;;;;;46.13;28.17;;;13.80;99.90;;;;;;5015217;28;20424;-73
2023/10/20 01:25:32;;;;;;;42.60;28.33;;;13.80;99.90;;;;;;5015102;28;20065;-73
2023/10/20 01:27:58;;;;;;;44.85;27.25;;;13.80;99.90;;;;;;5015436;28;20034;-74
2023/10/20 01:30:25;;;;;;;47.70;28.25;;;13.80;99.90;;;;;;5015460;28;20464;-73
2023/10/20 01:32:51;;;;;;;47.60;29.45;;;13.70;99.90;;;;;;5015181;28;20124;-73
2023/10/20 01:35:16;;;;;;;46.15;29.55;;;13.70;99.90;;;;;;5014314;28;20037;-73
2023/10/20 01:37:42;;;;;;;45.95;28.15;;;13.70;99.90;;;;;;5015031;28;20038;-73
2023/10/20 01:40:09;;;;;;;47.15;29.38;;;13.70;99.90;;;;;;5015053;28;20376;-73
2023/10/20 01:42:35;;;;;;;48.03;30.83;;;13.80;99.90;;;;;;5015221;28;20026;-73
2023/10/20 01:45:01;;;;;;;45.30;30.17;;;13.80;99.90;;;;;;5014598;28;20028;-74
2023/10/20 01:47:27;;;;;;;46.88;30.20;;;13.80;99.90;;;;;;5013967;28;20030;-74
2023/10/20 01:49:52;;;;;;;49.50;28.63;;;13.80;99.90;;;;;;5015139;28;20026;-74
2023/10/20 01:52:18;;;;;;;51.58;30.85;;;13.80;99.90;;;;;;5015095;28;20453;-74
2023/10/20 01:54:45;;;;;;;49.30;30.50;;;13.80;99.90;;;;;;5014966;28;20053;-74
2023/10/20 01:57:11;;;;;;;55.97;32.28;;;13.80;99.90;;;;;;5014436;28;20033;-73
2023/10/20 01:59:36;;;;;;;53.83;31.70;;;13.80;99.90;;;;;;5014678;28;20022;-73
2023/10/20 02:02:02;;;;;;;52.47;33.63;;;13.80;99.90;;;;;;5014661;28;20025;-74
2023/10/20 02:04:27;;;;;;;54.92;33.40;;;13.80;99.90;;;;;;5014860;28;20030;-73
2023/10/20 02:06:53;;;;;;;57.28;33.25;;;13.80;99.90;;;;;;5013847;28;20026;-73
2023/10/20 02:09:19;;;;;;;58.88;34.03;;;13.80;99.90;;;;;;5014446;28;20029;-73
2023/10/20 02:11:44;;;;;;;54.78;33.78;;;13.80;99.90;;;;;;5014740;28;20472;-73
2023/10/20 02:14:10;;;;;;;62.42;37.80;;;13.80;99.90;;;;;;5014476;28;20030;-73
2023/10/20 02:16:36;;;;;;;61.03;35.22;;;13.80;99.90;;;;;;5013635;28;20033;-74
2023/10/20 02:19:01;;;;;;;62.42;37.33;;;13.80;99.90;;;;;;5014469;28;20055;-74
2023/10/20 02:21:27;;;;;;;65.22;38.08;;;13.80;99.90;;;;;;5013818;28;20472;-73
2023/10/20 02:23:52;;;;;;;62.53;37.05;;;13.80;99.90;;;;;;5014344;28;20117;-73
2023/10/20 02:26:19;;;;;;;73.85;38.97;;;13.80;99.90;;;;;;5014686;28;20073;-74
2023/10/20 02:28:44;;;;;;;65.90;38.13;;;13.80;99.90;;;;;;5014195;28;20022;-74
2023/10/20 02:31:12;;;;;;;66.50;38.70;;;13.80;99.90;;;;;;5014342;28;20040;-74
2023/10/20 02:33:37;;;;;;;70.32;40.63;;;13.80;99.90;;;;;;5014463;28;20030;-73
2023/10/20 02:36:03;;;;;;;66.93;38.10;;;13.90;99.90;;;;;;5013076;28;20162;-73
2023/10/20 02:38:29;;;;;;;69.90;40.20;;;13.90;99.90;;;;;;5014301;28;20030;-74
2023/10/20 02:40:55;;;;;;;65.13;37.47;;;13.90;99.90;;;;;;5014536;28;20029;-74
2023/10/20 02:43:22;;;;;;;69.55;38.05;;;13.90;99.90;;;;;;5014420;28;20026;-74
2023/10/20 02:45:52;;;;;;;62.60;37.42;;;13.90;99.90;;;;;;5013801;28;20037;-74
2023/10/20 02:48:18;;;;;;;65.75;38.85;;;13.90;99.90;;;;;;5014077;28;20034;-74
2023/10/20 02:50:44;;;;;;;73.78;39.33;;;14.00;99.90;;;;;;5014255;28;20026;-75
2023/10/20 02:53:09;;;;;;;68.20;39.33;;;14.00;99.90;;;;;;5013692;28;20423;-73
2023/10/20 02:55:35;;;;;;;66.88;38.88;;;14.00;99.90;;;;;;5013968;28;20034;-73
2023/10/20 02:58:00;;;;;;;66.90;39.17;;;14.00;99.90;;;;;;5013721;28;20076;-73
2023/10/20 03:00:26;;;;;;;65.32;37.67;;;14.00;99.90;;;;;;5013652;28;20081;-73
2023/10/20 03:02:53;;;;;;;65.72;36.95;;;14.10;99.90;;;;;;5014276;28;20026;-74
2023/10/20 03:05:20;;;;;;;66.95;37.83;;;14.00;99.90;;;;;;5013657;28;20018;-73
2023/10/20 03:07:46;;;;;;;59.70;35.78;;;14.00;99.90;;;;;;5013564;28;20075;-74
2023/10/20 03:10:12;;;;;;;63.50;36.15;;;14.00;99.90;;;;;;5013618;28;20029;-74
2023/10/20 03:12:38;;;;;;;64.47;37.03;;;14.00;99.90;;;;;;5014172;28;20033;-73
2023/10/20 03:15:06;;;;;;;60.03;33.45;;;14.00;99.90;;;;;;5014255;28;20068;-73
2023/10/20 03:17:32;;;;;;;57.40;35.58;;;14.00;99.90;;;;;;5013687;28;20032;-73
2023/10/20 03:19:57;;;;;;;58.85;34.05;;;14.00;99.90;;;;;;5017718;28;20113;-73
2023/10/20 03:22:23;;;;;;;60.45;35.95;;;14.00;99.90;;;;;;5017111;28;20018;-74
2023/10/20 03:24:48;;;;;;;57.70;35.15;;;14.00;99.90;;;;;;5017437;28;20361;-73
2023/10/20 03:27:14;;;;;;;63.08;34.38;;;14.00;99.90;;;;;;5017060;28;20034;-73
2023/10/20 03:29:40;;;;;;;60.03;33.70;;;14.00;99.90;;;;;;5017448;28;20029;-74
2023/10/20 03:32:05;;;;;;;59.22;35.13;;;14.00;99.90;;;;;;5016887;28;20079;-74
2023/10/20 03:34:32;;;;;;;56.00;34.67;;;14.00;99.90;;;;;;5017177;28;20083;-73
2023/10/20 03:36:57;;;;;;;54.72;32.80;;;14.00;99.90;;;;;;5016566;28;20515;-73
2023/10/20 03:39:23;;;;;;;57.65;32.60;;;14.00;99.90;;;;;;5017174;28;20022;-73
2023/10/20 03:41:49;;;;;;;54.25;34.10;;;14.00;99.90;;;;;;5017253;28;20026;-73
2023/10/20 03:44:15;;;;;;;57.72;34.40;;;14.00;99.90;;;;;;5016900;28;20041;-73
2023/10/20 03:46:49;;;;;;;52.58;33.08;;;14.00;99.90;;;;;;5017403;28;20052;-73
2023/10/20 03:49:16;;;;;;;53.63;33.05;;;13.90;99.90;;;;;;5016572;28;20032;-73
2023/10/20 03:51:49;;;;;;;54.63;34.15;;;13.90;99.90;;;;;;5017151;28;20056;-73
2023/10/20 03:54:17;;;;;;;59.08;34.80;;;13.90;99.90;;;;;;5017451;28;20476;-74
2023/10/20 03:56:43;;;;;;;57.38;34.63;;;13.90;99.90;;;;;;5017144;28;20124;-74
2023/10/20 03:59:10;;;;;;;56.90;34.80;;;13.90;99.90;;;;;;5016806;28;20112;-74
2023/10/20 04:01:35;;;;;;;59.22;35.25;;;13.90;99.90;;;;;;5016933;28;20037;-74
2023/10/20 04:04:01;;;;;;;58.95;34.97;;;13.80;99.90;;;;;;5017160;28;20030;-74
2023/10/20 04:06:27;;;;;;;57.75;34.42;;;13.90;99.90;;;;;;5016811;28;20033;-74
2023/10/20 04:08:52;;;;;;;59.70;34.80;;;13.80;99.90;;;;;;5017183;28;20030;-74
2023/10/20 04:11:18;;;;;;;59.45;34.22;;;13.80;99.90;;;;;;5016753;28;20026;-74
2023/10/20 04:13:44;;;;;;;60.03;36.70;;;13.80;99.90;;;;;;5017015;28;20079;-73
2023/10/20 04:16:12;;;;;;;60.72;36.38;;;13.80;99.90;;;;;;5016473;28;20038;-74
2023/10/20 04:18:39;;;;;;;62.42;36.65;;;13.80;99.90;;;;;;5016236;28;20048;-74
2023/10/20 04:21:05;;;;;;;60.10;36.47;;;13.80;99.90;;;;;;5016668;28;20029;-74
2023/10/20 04:23:30;;;;;;;67.35;39.17;;;13.80;99.90;;;;;;5016139;28;20510;-74
2023/10/20 04:25:57;;;;;;;67.75;38.28;;;13.80;99.90;;;;;;5016762;28;20022;-73
2023/10/20 04:28:32;;;;;;;69.05;39.55;;;13.80;99.90;;;;;;5015836;28;20025;-73
2023/10/20 04:52:58;;;;;;;62.28;36.30;;;13.70;99.90;;;;;;5112028;27;20412;-74
2023/10/20 04:58:04;;;;;;;66.68;37.40;;;13.70;99.90;;;;;;5111395;28;20504;-74
2023/10/20 05:00:35;;;;;;;63.45;36.10;;;13.60;99.90;;;;;;5111676;28;20048;-74
2023/10/20 05:05:44;;;;;;;62.40;35.40;;;13.60;99.90;;;;;;5111722;27;20288;-73
2023/10/20 05:10:40;;;;;;;65.88;36.33;;;13.60;99.90;;;;;;5111396;28;20026;-74
2023/10/20 05:13:05;;;;;;;60.00;35.63;;;13.60;99.90;;;;;;5111487;28;20016;-73
2023/10/20 05:15:33;;;;;;;61.47;35.08;;;13.60;99.90;;;;;;5111977;28;20024;-74
2023/10/20 05:17:58;;;;;;;59.88;34.63;;;13.60;99.90;;;;;;5111375;28;20354;-73
2023/10/20 05:20:24;;;;;;;59.40;34.22;;;13.60;99.90;;;;;;5111547;28;20031;-73
2023/10/20 05:22:50;;;;;;;61.42;34.25;;;13.60;99.90;;;;;;5111821;28;20031;-73
2023/10/20 05:25:16;;;;;;;60.88;35.22;;;13.60;99.90;;;;;;5111080;28;20119;-73
2023/10/20 05:27:43;;;;;;;60.78;35.15;;;13.50;99.90;;;;;;5111404;28;20450;-73
2023/10/20 05:30:09;;;;;;;56.20;33.20;;;13.50;99.90;;;;;;5111321;28;20019;-73
2023/10/20 05:32:37;;;;;;;56.25;33.00;;;13.50;99.90;;;;;;5111723;28;20433;-73
2023/10/20 05:35:04;;;;;;;56.83;32.22;;;13.50;99.90;;;;;;5111289;28;20122;-73
2023/10/20 05:37:30;;;;;;;56.30;31.20;;;13.60;99.90;;;;;;5111155;28;20028;-74
2023/10/20 05:39:56;;;;;;;54.05;30.95;;;13.50;99.90;;;;;;5111088;28;20028;-73
2023/10/20 05:42:22;;;;;;;56.20;31.27;;;13.60;99.90;;;;;;5111426;28;20378;-73
2023/10/20 05:44:58;;;;;;;48.97;28.73;;;13.50;99.90;;;;;;5110998;28;20151;-72
2023/10/20 05:47:25;;;;;;;46.97;27.58;;;13.50;99.90;;;;;;5110642;28;20061;-73
2023/10/20 05:49:51;;;;;;;47.15;27.15;;;13.50;99.90;;;;;;5110943;28;20114;-74
2023/10/20 05:52:17;;;;;;;46.75;26.05;;;13.50;99.90;;;;;;5111019;28;20108;-73
2023/10/20 05:54:42;;;;;;;42.95;24.15;;;13.50;99.90;;;;;;5110914;28;20020;-73
2023/10/20 05:57:08;;;;;;;35.78;23.45;;;13.50;99.90;;;;;;5110943;28;20402;-74
2023/10/20 05:59:33;;;;;;;40.70;24.10;;;13.50;99.90;;;;;;5109637;28;20024;-73
2023/10/20 06:01:59;;;;;;;36.42;22.00;;;13.50;99.90;;;;;;5109815;28;20074;-73
2023/10/20 06:04:25;;;;;;;38.15;22.25;;;13.40;99.90;;;;;;5109921;28;20071;-73
2023/10/20 06:06:51;;;;;;;35.72;21.08;;;13.50;99.90;;;;;;5110936;28;20020;-73
2023/10/20 06:09:16;;;;;;;33.78;19.80;;;13.40;99.90;;;;;;5110278;28;20069;-74
2023/10/20 06:11:42;;;;;;;31.15;20.38;;;13.40;99.90;;;;;;5108208;28;20478;-73
2023/10/20 06:14:07;;;;;;;31.70;19.55;;;13.40;99.90;;;;;;5099603;28;20031;-72
2023/10/20 06:16:33;;;;;;;32.92;20.48;;;13.50;99.90;;;;;;5084883;28;20040;-73
2023/10/20 06:18:59;;;;;;;27.23;19.10;;;13.40;99.90;;;;;;5082763;28;20060;-74
2023/10/20 06:21:24;;;;;;;32.95;19.95;;;13.40;99.90;;;;;;5095911;28;20020;-72
2023/10/20 06:23:50;;;;;;;31.08;20.48;;;13.40;99.90;;;;;;5096661;28;20036;-73
2023/10/20 06:26:16;;;;;;;33.85;20.23;;;13.40;99.90;;;;;;5080178;28;20028;-73
2023/10/20 06:28:43;;;;;;;30.17;19.95;;;13.40;99.90;;;;;;5076025;28;20036;-74
2023/10/20 06:31:42;;;;;;;31.80;19.63;;;13.30;99.90;;;;;;5076623;28;20025;-74
2023/10/20 06:34:18;;;;;;;28.40;19.23;;;13.30;99.90;;;;;;5075668;28;20063;-73
2023/10/20 06:36:46;;;;;;;24.95;18.35;;;13.20;99.90;;;;;;5082664;28;20132;-72
2023/10/20 06:39:14;;;;;;;30.20;20.20;;;13.20;99.90;;;;;;5086631;28;20032;-73
2023/10/20 06:41:40;;;;;;;26.20;17.65;;;13.20;99.90;;;;;;5079053;28;20047;-73
2023/10/20 06:44:06;;;;;;;26.90;18.38;;;13.10;99.90;;;;;;5112117;28;20027;-72
2023/10/20 06:46:31;;;;;;;24.02;16.95;;;13.10;99.90;;;;;;5085175;28;20062;-72
2023/10/20 06:48:57;;;;;;;24.10;16.23;;;13.00;99.90;;;;;;5094905;28;20390;-73
2023/10/20 06:51:25;;;;;;;21.88;15.65;;;13.00;99.90;;;;;;5086810;28;20024;-72
2023/10/20 06:53:50;;;;;;;22.38;15.75;;;13.00;99.90;;;;;;5093609;28;20470;-72
2023/10/20 06:56:16;;;;;;;16.98;14.02;;;12.90;99.90;;;;;;5077498;28;20078;-73
2023/10/20 06:58:41;;;;;;;18.02;14.00;;;12.90;99.90;;;;;;5078488;28;20028;-73
2023/10/20 07:01:08;;;;;;;19.27;13.35;;;12.90;99.90;;;;;;5093543;28;20036;-73
2023/10/20 07:03:33;;;;;;;18.60;13.02;;;12.80;99.90;;;;;;5095159;28;20055;-73
2023/10/20 07:06:00;;;;;;;17.63;13.32;;;12.70;99.90;;;;;;5094239;28;20024;-74
2023/10/20 07:08:26;;;;;;;17.33;12.65;;;12.70;99.90;;;;;;5095562;28;20373;-74
2023/10/20 07:10:52;;;;;;;15.45;12.35;;;12.70;99.90;;;;;;5088019;28;20470;-75
2023/10/20 07:13:18;;;;;;;19.15;12.38;;;12.60;99.90;;;;;;5088852;28;20028;-75
2023/10/20 07:15:44;;;;;;;15.70;12.20;;;12.60;99.90;;;;;;5095395;28;20020;-74
2023/10/20 07:18:12;;;;;;;15.77;12.07;;;12.50;99.90;;;;;;5095659;28;20035;-74
2023/10/20 07:20:38;;;;;;;18.73;12.82;;;12.50;99.90;;;;;;5083817;28;20106;-74
2023/10/20 07:23:05;;;;;;;19.38;13.32;;;12.50;99.90;;;;;;5089419;28;20039;-73
2023/10/20 07:25:31;;;;;;;18.65;13.13;;;12.50;99.90;;;;;;5088349;28;20035;-73
2023/10/20 07:27:57;;;;;;;15.63;12.35;;;12.40;99.90;;;;;;5084816;28;20382;-73
2023/10/20 07:30:23;;;;;;;16.45;12.80;;;12.40;99.90;;;;;;5092747;28;20085;-73
2023/10/20 07:32:51;;;;;;;17.48;12.57;;;12.30;99.90;;;;;;5085804;28;20481;-74
2023/10/20 07:35:17;;;;;;;16.67;12.95;;;12.30;99.90;;;;;;5087742;28;20020;-73
2023/10/20 07:37:43;;;;;;;16.50;12.25;;;12.30;99.90;;;;;;5088685;28;20370;-74
2023/10/20 07:40:10;;;;;;;18.98;12.02;;;12.20;99.90;;;;;;5088670;28;20093;-72
2023/10/20 07:42:36;;;;;;;15.18;11.43;;;12.20;99.90;;;;;;5091184;28;20034;-72
2023/10/20 07:45:01;;;;;;;12.93;10.93;;;12.20;99.90;;;;;;5086694;28;20081;-72
2023/10/20 07:47:28;;;;;;;15.75;10.15;;;12.10;99.90;;;;;;5086611;28;20024;-72
2023/10/20 07:49:53;;;;;;;13.65;10.40;;;12.10;99.90;;;;;;5088718;28;20024;-73
2023/10/20 07:52:19;;;;;;;12.75;10.23;;;12.00;99.90;;;;;;5090853;28;20016;-74
2023/10/20 07:54:45;;;;;;;12.98;10.35;;;12.00;99.90;;;;;;5085994;28;20118;-71
2023/10/20 07:57:12;;;;;;;12.10;9.82;;;11.90;99.90;;;;;;5087737;28;20069;-72
2023/10/20 07:59:38;;;;;;;13.35;10.02;;;11.90;99.90;;;;;;5093976;28;20031;-72
2023/10/20 08:02:05;;;;;;;13.00;9.55;;;11.80;99.90;;;;;;5090300;28;20031;-72
2023/10/20 08:04:32;;;;;;;14.77;10.38;;;11.80;99.90;;;;;;5090589;28;20510;-73
2023/10/20 08:06:59;;;;;;;14.80;10.73;;;11.80;99.90;;;;;;5092070;28;20028;-73
2023/10/20 08:09:26;;;;;;;13.35;9.98;;;11.80;99.90;;;;;;5091433;28;20382;-73
2023/10/20 08:11:51;;;;;;;11.60;9.65;;;11.70;99.90;;;;;;5091292;28;20038;-73
2023/10/20 08:14:17;;;;;;;13.35;10.40;;;11.80;99.90;;;;;;5092793;28;20119;-73
2023/10/20 08:16:42;;;;;;;13.52;9.80;;;11.70;99.90;;;;;;5094196;28;20074;-74
2023/10/20 08:19:08;;;;;;;15.15;10.45;;;11.70;99.90;;;;;;5094511;28;20028;-75
2023/10/20 08:21:34;;;;;;;10.60;9.20;;;11.70;99.90;;;;;;5087208;28;20024;-73
2023/10/20 08:24:00;;;;;;;13.15;10.00;;;11.70;99.90;;;;;;5074422;28;20559;-74
2023/10/20 08:26:25;;;;;;;12.57;9.93;;;11.70;99.90;;;;;;5077771;28;20093;-71
2023/10/20 08:28:51;;;;;;;14.13;11.85;;;11.70;99.90;;;;;;5091081;28;20449;-73
2023/10/20 08:31:17;;;;;;;12.93;10.70;;;11.60;99.90;;;;;;5086191;28;20025;-73
2023/10/20 08:33:44;;;;;;;14.50;11.60;;;11.60;99.90;;;;;;5091711;28;20020;-73
2023/10/20 08:36:11;;;;;;;19.02;11.40;;;11.50;99.90;;;;;;5091431;28;20031;-73
2023/10/20 08:38:41;;;;;;;11.57;10.02;;;11.50;99.90;;;;;;5091421;28;20039;-73
2023/10/20 08:41:09;;;;;;;13.68;9.95;;;11.50;99.90;;;;;;5079156;28;20615;-73
2023/10/20 08:43:38;;;;;;;15.48;10.70;;;11.50;99.90;;;;;;5086708;28;20043;-73
2023/10/20 08:46:05;;;;;;;14.73;11.90;;;11.50;99.90;;;;;;5092340;28;20024;-73
2023/10/20 08:48:31;;;;;;;14.50;11.70;;;11.50;99.90;;;;;;5088861;28;20099;-73
2023/10/20 08:50:58;;;;;;;12.52;10.57;;;11.50;99.90;;;;;;5073545;28;20078;-75
2023/10/20 08:53:26;;;;;;;13.23;10.73;;;11.60;99.90;;;;;;5073045;28;20028;-71
2023/10/20 08:55:51;;;;;;;12.05;9.77;;;11.50;99.90;;;;;;5076029;28;20461;-74
2023/10/20 08:58:17;;;;;;;12.32;9.88;;;11.50;99.90;;;;;;5072935;28;20020;-73
2023/10/20 09:00:43;;;;;;;13.50;10.63;;;11.50;99.90;;;;;;5072890;28;20440;-74
2023/10/20 09:03:10;;;;;;;15.60;10.18;;;11.50;99.90;;;;;;5084467;28;20080;-73
2023/10/20 09:05:35;;;;;;;14.27;10.07;;;11.60;99.90;;;;;;5084399;28;20410;-74
2023/10/20 09:08:01;;;;;;;13.00;9.18;;;11.60;99.90;;;;;;5078929;28;20024;-73
2023/10/20 09:10:27;;;;;;;10.70;9.60;;;11.60;99.90;;;;;;5088403;28;20025;-72
2023/10/20 09:12:52;;;;;;;11.23;9.90;;;11.60;99.90;;;;;;5088012;28;20059;-73
2023/10/20 09:15:18;;;;;;;12.45;9.68;;;11.60;99.90;;;;;;5088615;28;20059;-74
2023/10/20 09:17:51;;;;;;;12.38;9.70;;;11.60;99.90;;;;;;5089347;28;20032;-73
2023/10/20 09:20:16;;;;;;;10.48;8.85;;;11.60;99.90;;;;;;5089927;28;20036;-73
2023/10/20 09:22:42;;;;;;;10.18;8.95;;;11.60;99.90;;;;;;5087946;28;20405;-74
2023/10/20 09:25:10;;;;;;;12.07;8.93;;;11.60;99.90;;;;;;5091115;28;20032;-73
2023/10/20 09:27:37;;;;;;;9.57;8.45;;;11.60;99.90;;;;;;5087368;28;20029;-72
2023/10/20 09:30:08;;;;;;;9.82;8.48;;;11.60;99.90;;;;;;5086775;28;20041;-73
2023/10/20 09:32:35;;;;;;;10.93;9.18;;;11.60;99.90;;;;;;5085904;28;20028;-73
2023/10/20 09:35:01;;;;;;;11.45;8.63;;;11.60;99.90;;;;;;5092128;28;20028;-73
2023/10/20 09:37:30;;;;;;;9.13;8.23;;;11.50;99.90;;;;;;5080448;28;20182;-74
2023/10/20 09:40:07;;;;;;;9.75;8.15;;;11.60;99.90;;;;;;5092693;28;20489;-73
2023/10/20 09:45:32;;;;;;;7.90;7.10;;;11.50;99.90;;;;;;5107632;27;20408;-74
2023/10/20 09:48:03;;;;;;;10.27;7.75;;;11.50;99.90;;;;;;5109754;28;20664;-74
2023/10/20 09:50:31;;;;;;;8.93;7.78;;;11.50;99.90;;;;;;5109816;28;20508;-75
2023/10/20 09:52:58;;;;;;;9.70;7.80;;;11.40;99.90;;;;;;5109790;28;20038;-73
2023/10/20 09:55:25;;;;;;;10.95;7.78;;;11.40;99.90;;;;;;5107476;28;20054;-75
2023/10/20 09:57:50;;;;;;;8.55;7.30;;;11.40;99.90;;;;;;5102855;27;20470;-73
2023/10/20 10:00:28;;;;;;;10.02;7.63;;;11.50;99.90;;;;;;5111780;28;20027;-75
2023/10/20 10:02:59;;;;;;;10.88;7.43;;;11.40;99.90;;;;;;5097657;28;20026;-74
2023/10/20 10:05:24;;;;;;;9.65;7.35;;;11.40;99.90;;;;;;5120335;28;20032;-75
2023/10/20 10:08:03;;;;;;;8.43;6.88;;;11.40;99.90;;;;;;5109933;28;20051;-71
2023/10/20 10:10:28;;;;;;;10.77;7.22;;;11.50;99.90;;;;;;5106234;28;20031;-74
2023/10/20 10:13:00;;;;;;;8.27;7.38;;;11.40;99.90;;;;;;5103594;28;20107;-73
2023/10/20 10:15:45;;;;;;;7.88;6.97;;;11.40;99.90;;;;;;5090054;28;20032;-74
2023/10/20 10:18:12;;;;;;;8.30;6.78;;;11.40;99.90;;;;;;5113683;28;20027;-75
2023/10/20 10:20:47;;;;;;;10.90;7.55;;;11.40;99.90;;;;;;5120175;28;20036;-72
2023/10/20 10:23:14;;;;;;;9.73;6.95;;;11.40;99.90;;;;;;5093058;28;20032;-75
2023/10/20 10:25:47;;;;;;;7.70;6.68;;;11.40;99.90;;;;;;5106270;28;20139;-75
2023/10/20 10:28:15;;;;;;;8.75;6.32;;;11.40;99.90;;;;;;5089717;28;20024;-75
2023/10/20 10:30:41;;;;;;;7.18;6.35;;;11.40;99.90;;;;;;5094657;28;20031;-76
2023/10/20 10:33:09;;;;;;;7.95;6.63;;;11.30;99.90;;;;;;5110933;28;20028;-76
2023/10/20 10:35:36;;;;;;;8.52;6.72;;;11.40;99.90;;;;;;5103909;28;20024;-74
2023/10/20 10:38:03;;;;;;;8.32;7.18;;;11.40;99.90;;;;;;5107032;28;20028;-75
2023/10/20 10:40:29;;;;;;;7.63;6.47;;;11.50;99.90;;;;;;5109451;28;20019;-75
2023/10/20 10:42:54;;;;;;;7.88;6.03;;;11.60;99.90;;;;;;5088994;28;20453;-75
2023/10/20 10:45:23;;;;;;;9.15;7.00;;;11.50;99.90;;;;;;5100201;28;20044;-75
2023/10/20 10:48:07;;;;;;;8.85;7.05;;;11.50;99.90;;;;;;5099544;28;20382;-75
2023/10/20 10:50:35;;;;;;;8.30;6.40;;;11.50;99.90;;;;;;5091880;28;20114;-74
2023/10/20 10:53:01;;;;;;;9.00;5.82;;;11.50;99.90;;;;;;5094028;28;20024;-74
2023/10/20 10:55:27;;;;;;;8.40;6.85;;;11.50;99.90;;;;;;5085675;28;20062;-73
2023/10/20 10:57:52;;;;;;;7.70;6.40;;;11.50;99.90;;;;;;5075639;28;20058;-74
2023/10/20 11:00:18;;;;;;;7.20;6.50;;;11.50;99.90;;;;;;5083270;28;20427;-74
2023/10/20 11:02:46;;;;;;;7.43;6.65;;;11.50;99.90;;;;;;5092189;28;20024;-73
2023/10/20 11:05:15;;;;;;;7.85;6.95;;;11.60;99.90;;;;;;5094007;28;20505;-73
2023/10/20 11:07:41;;;;;;;7.75;6.95;;;11.60;99.90;;;;;;5070887;28;20156;-74
2023/10/20 11:10:08;;;;;;;8.50;6.63;;;11.60;99.90;;;;;;5073330;28;20059;-74
2023/10/20 11:12:35;;;;;;;6.78;6.03;;;11.50;99.90;;;;;;5074943;28;20103;-74
2023/10/20 11:15:01;;;;;;;6.85;6.15;;;11.50;99.90;;;;;;5072534;28;20032;-73
2023/10/20 11:17:27;;;;;;;9.75;6.00;;;11.50;99.90;;;;;;5072239;28;20052;-74
2023/10/20 11:19:53;;;;;;;7.38;6.45;;;11.50;99.90;;;;;;5075787;28;20027;-74
2023/10/20 11:22:19;;;;;;;8.15;6.30;;;11.50;99.90;;;;;;5075316;28;20037;-74
2023/10/20 11:24:52;;;;;;;7.40;6.32;;;11.40;99.90;;;;;;5071118;28;20033;-75
2023/10/20 11:27:18;;;;;;;6.97;6.18;;;11.40;99.90;;;;;;5067359;28;20459;-75
2023/10/20 11:29:45;;;;;;;8.07;6.03;;;11.50;99.90;;;;;;5065375;28;20079;-74
2023/10/20 11:32:13;;;;;;;7.38;6.15;;;11.50;99.90;;;;;;5068892;28;20521;-74
2023/10/20 11:34:39;;;;;;;6.85;5.90;;;11.50;99.90;;;;;;5075829;28;20043;-74
2023/10/20 11:37:05;;;;;;;7.30;6.47;;;11.50;99.90;;;;;;5070720;28;20394;-74
2023/10/20 11:39:34;;;;;;;7.53;6.10;;;11.40;99.90;;;;;;5074766;28;20078;-74
2023/10/20 11:41:59;;;;;;;8.88;6.60;;;11.30;99.90;;;;;;5073721;28;20393;-74
2023/10/20 11:44:26;;;;;;;7.35;6.05;;;11.40;99.90;;;;;;5073170;28;20152;-74
2023/10/20 11:46:53;;;;;;;8.82;5.78;;;11.30;99.90;;;;;;5072300;28;20028;-74
2023/10/20 11:49:19;;;;;;;9.38;6.50;;;11.30;99.90;;;;;;5083836;28;20043;-75
2023/10/20 11:51:45;;;;;;;8.60;6.53;;;11.30;99.90;;;;;;5077724;28;20048;-74
2023/10/20 11:54:11;;;;;;;6.38;5.78;;;11.30;99.90;;;;;;5073867;28;20067;-74
2023/10/20 11:56:37;;;;;;;6.95;5.95;;;11.20;99.90;;;;;;5072679;28;20062;-74
2023/10/20 11:59:03;;;;;;;6.93;6.22;;;11.30;99.90;;;;;;5062778;28;20103;-73
2023/10/20 12:01:31;;;;;;;7.38;5.95;;;11.40;99.90;;;;;;5072664;28;20050;-73
2023/10/20 12:03:58;;;;;;;7.80;5.65;;;11.30;99.90;;;;;;5055525;28;20383;-74
2023/10/20 12:06:23;;;;;;;6.53;5.47;;;11.30;99.90;;;;;;5054444;28;20486;-73
2023/10/20 12:08:50;;;;;;;8.20;5.60;;;11.30;99.90;;;;;;5070036;28;20025;-74
2023/10/20 12:11:16;;;;;;;6.88;5.97;;;11.30;99.90;;;;;;5063334;28;20082;-74
2023/10/20 12:13:46;;;;;;;9.95;5.78;;;11.30;99.90;;;;;;5054824;28;20039;-75
2023/10/20 12:16:12;;;;;;;6.40;5.72;;;11.20;99.90;;;;;;5060088;28;20028;-72
2023/10/20 12:18:38;;;;;;;7.95;6.13;;;11.20;99.90;;;;;;5072125;28;20555;-73
2023/10/20 12:21:03;;;;;;;7.15;5.80;;;11.10;99.90;;;;;;5072849;28;20032;-75
2023/10/20 12:23:29;;;;;;;8.05;5.93;;;11.20;99.90;;;;;;5068809;28;20032;-74
2023/10/20 12:25:54;;;;;;;7.18;6.00;;;11.20;99.90;;;;;;5063168;28;20395;-73
2023/10/20 12:28:20;;;;;;;7.65;5.70;;;11.20;99.90;;;;;;5088475;28;20027;-74
2023/10/20 12:30:46;;;;;;;7.70;6.05;;;11.20;99.90;;;;;;5083380;28;20031;-74
2023/10/20 12:33:12;;;;;;;9.57;6.78;;;11.10;99.90;;;;;;5071051;28;20036;-74
2023/10/20 12:35:37;;;;;;;8.68;6.70;;;11.10;99.90;;;;;;5073478;28;20024;-73
2023/10/20 12:38:03;;;;;;;8.25;6.85;;;11.10;99.90;;;;;;5068421;28;20032;-73
2023/10/20 12:40:28;;;;;;;7.82;6.43;;;11.10;99.90;;;;;;5054304;28;20029;-73
2023/10/20 12:42:54;;;;;;;8.27;6.88;;;11.20;99.90;;;;;;5061149;28;20547;-73
2023/10/20 12:45:19;;;;;;;9.20;6.85;;;11.20;99.90;;;;;;5069390;28;20082;-73
2023/10/20 12:47:45;;;;;;;8.02;6.55;;;11.10;99.90;;;;;;5072385;28;20067;-73
2023/10/20 12:50:11;;;;;;;7.95;6.40;;;11.10;99.90;;;;;;5072858;28;20025;-74
2023/10/20 12:52:36;;;;;;;8.43;6.25;;;11.10;99.90;;;;;;5072662;28;20412;-73
2023/10/20 12:55:05;;;;;;;9.73;7.63;;;11.00;99.90;;;;;;5073321;28;20432;-73
2023/10/20 12:57:31;;;;;;;9.85;7.25;;;11.00;99.90;;;;;;5074429;28;20028;-74
2023/10/20 12:59:57;;;;;;;9.52;7.13;;;11.10;99.90;;;;;;5074017;28;20028;-74
2023/10/20 13:02:23;;;;;;;10.23;7.88;;;11.00;99.90;;;;;;5074534;28;20111;-73